»·PEaware :: N212VC KSBP-KSBP

N212VC :: KSBP-KSBP

FLIGHT INFORMATION

Flight Status: Arrived
Operator: Privately registered:
United States
More flights under this callsign
Pilot: James M. (41478)
Aircraft: CESSNA 172 SKYHAWK
(C172)
More flights by this aircraft type
Origin: KSBP San Luis Co Regl
United States
Destination: KSBP San Luis Co Regl
United States
More flights between these airports :: More routes between these airports
Route:
File this flight plan on PilotEdge
Remarks:
Altitude:
(Current/Filed)
0ft
Speed:
(Current/Filed)
0kts
Departed: 18-Mar-23 01:07 PM
Arrived: 18-Mar-23 02:18 PM
Distance/Time
Traveled:
0nm/1:11
Distance/Time
To Go:
Arrived

Flight Plot

Page will automatically refresh every two minutes.


Map Options




Map Legend


Flown Route
Filed Route
Departure Airport
Arrival Airport
Navaid (VOR, NDB)
Fix

Horizontal Profiles

Position Reports

Time Latitude Longitude Heading Altitude Ground
Speed
18-Mar-23 13:01 35.238249 -120.639996 307 215ft 0kts
18-Mar-23 13:02 35.236852 -120.638247 122 215ft 15kts
18-Mar-23 13:03 35.234210 -120.633605 124 215ft 15kts
18-Mar-23 13:04 35.233248 -120.632002 243 215ft 0kts
18-Mar-23 13:05 35.233174 -120.632349 215 215ft 0kts
18-Mar-23 13:06 35.236491 -120.639346 305 356ft 64kts
18-Mar-23 13:07 35.243845 -120.658839 217 1111ft 79kts
18-Mar-23 13:08 35.225282 -120.651386 126 1311ft 90kts
18-Mar-23 13:09 35.210108 -120.625455 117 1166ft 90kts
18-Mar-23 13:10 35.224013 -120.617490 302 654ft 76kts
18-Mar-23 13:11 35.234967 -120.636834 304 215ft 48kts
18-Mar-23 13:12 35.244986 -120.654220 304 713ft 75kts
18-Mar-23 13:13 35.235624 -120.670350 150 1196ft 89kts
18-Mar-23 13:14 35.220528 -120.645063 122 1244ft 93kts
18-Mar-23 13:15 35.209849 -120.618096 53 1057ft 95kts
18-Mar-23 13:17 35.227627 -120.623857 304 444ft 75kts
18-Mar-23 13:18 35.237757 -120.641767 305 229ft 71kts
18-Mar-23 13:19 35.247396 -120.661998 260 1067ft 74kts
18-Mar-23 13:20 35.229930 -120.664777 122 1297ft 87kts
18-Mar-23 13:21 35.216353 -120.639709 122 1338ft 89kts
18-Mar-23 13:22 35.215622 -120.615748 22 1009ft 82kts
18-Mar-23 13:23 35.232097 -120.631828 305 278ft 75kts
18-Mar-23 13:24 35.243047 -120.650583 305 696ft 71kts
18-Mar-23 13:25 35.230222 -120.661935 128 1202ft 103kts
18-Mar-23 13:26 35.213842 -120.631679 124 1130ft 101kts
18-Mar-23 13:27 35.222277 -120.613550 306 789ft 90kts
18-Mar-23 13:28 35.234495 -120.635985 304 219ft 52kts
18-Mar-23 13:29 35.245234 -120.653720 305 852ft 69kts
18-Mar-23 13:30 35.231250 -120.664295 131 1222ft 102kts
18-Mar-23 13:31 35.214875 -120.636068 124 1284ft 103kts
18-Mar-23 13:32 35.216428 -120.611013 4 893ft 92kts
18-Mar-23 13:33 35.231245 -120.630311 304 306ft 74kts
18-Mar-23 13:34 35.241575 -120.648310 304 529ft 75kts
18-Mar-23 13:35 35.236224 -120.667682 201 1194ft 93kts
18-Mar-23 13:36 35.218789 -120.643527 118 1217ft 101kts
18-Mar-23 13:37 35.214796 -120.614674 40 957ft 93kts
18-Mar-23 13:38 35.230383 -120.628949 303 338ft 74kts
18-Mar-23 13:39 35.240301 -120.646142 304 407ft 78kts
18-Mar-23 13:40 35.241078 -120.667163 211 1089ft 96kts
18-Mar-23 13:41 35.221626 -120.647687 123 1181ft 107kts
18-Mar-23 13:42 35.207590 -120.619693 90 1141ft 97kts
18-Mar-23 13:42 35.222890 -120.615873 308 670ft 80kts
18-Mar-23 13:44 35.235844 -120.638397 303 215ft 49kts
18-Mar-23 13:59 34.912018 -120.430605 145 1279ft 95kts
18-Mar-23 14:00 34.894339 -120.411033 157 1301ft 80kts
18-Mar-23 14:01 34.882492 -120.425277 268 815ft 65kts
18-Mar-23 14:02 34.891335 -120.444074 307 339ft 66kts
18-Mar-23 14:03 34.903415 -120.458217 312 459ft 75kts
18-Mar-23 14:04 34.920138 -120.473679 317 1423ft 79kts
18-Mar-23 14:05 34.940475 -120.488983 327 2187ft 98kts
18-Mar-23 14:06 34.969837 -120.496558 347 2525ft 119kts
18-Mar-23 14:07 35.003453 -120.500508 349 2603ft 124kts
18-Mar-23 14:08 35.037704 -120.504990 352 2454ft 121kts
18-Mar-23 14:09 35.070738 -120.507317 353 2426ft 119kts
18-Mar-23 14:10 35.103316 -120.511056 354 2468ft 115kts
18-Mar-23 14:11 35.135170 -120.512950 337 2440ft 111kts
18-Mar-23 14:12 35.162990 -120.530769 325 2239ft 117kts
18-Mar-23 14:13 35.188603 -120.554176 302 1862ft 112kts
18-Mar-23 14:14 35.206082 -120.584939 297 1401ft 107kts
18-Mar-23 14:15 35.222228 -120.614034 297 804ft 82kts
18-Mar-23 14:16 35.233334 -120.633944 294 232ft 54kts
18-Mar-23 14:17 35.237950 -120.639807 22 215ft 10kts
18-Mar-23 14:18 35.238556 -120.639769 2 215ft 0kts
18-Mar-23 14:19 35.238556 -120.639769 2 215ft 0kts
18-Mar-23 14:20 35.238556 -120.639769 2 215ft 0kts
18-Mar-23 14:21 35.238556 -120.639769 2 215ft 0kts
18-Mar-23 14:22 35.238556 -120.639769 2 215ft 0kts
18-Mar-23 14:23 35.238556 -120.639769 2 215ft 0kts
18-Mar-23 14:24 35.238556 -120.639769 2 215ft 0kts
18-Mar-23 14:25 35.238556 -120.639769 2 215ft 0kts
18-Mar-23 14:26 35.238556 -120.639769 2 215ft 0kts
18-Mar-23 14:27 35.238556 -120.639769 2 215ft 0kts
18-Mar-23 14:28 35.238556 -120.639769 2 215ft 0kts
18-Mar-23 14:29 35.238556 -120.639769 2 215ft 0kts
18-Mar-23 14:30 35.238556 -120.639769 2 215ft 0kts
18-Mar-23 14:31 35.238556 -120.639769 2 215ft 0kts
18-Mar-23 14:32 35.238556 -120.639769 2 215ft 0kts

Navigation Log

Ident Type
Flight plan parsing failed, navigation log unavailable